Time;durP1;ratioP1;P1;durP2;ratioP2;P2;SDS_P1;SDS_P2;PMS_P1;PMS_P2;Temp;Humidity;BMP_temperature;BMP_pressure;BME280_temperature;BME280_humidity;BME280_pressure;Samples;Min_cycle;Max_cycle;Signal;HPM_P1;HPM_P2
2020/12/03 00:01:08;;;;;;;45.43;24.50;;;4.00;99.90;;;-143.32;100.00;97612.28;4938503;29;20527;-88
2020/12/03 00:03:39;;;;;;;50.83;23.97;;;4.00;99.90;;;-143.32;100.00;97649.09;4938584;29;20411;-91
2020/12/03 00:06:15;;;;;;;40.67;23.20;;;4.00;99.90;;;-143.32;100.00;97616.38;4938213;28;20419;-91
2020/12/03 00:08:46;;;;;;;45.97;24.80;;;4.00;99.90;;;-143.32;100.00;97634.78;4938521;29;20414;-90
2020/12/03 00:11:32;;;;;;;46.00;24.97;;;4.10;99.90;;;-143.32;100.00;97642.97;4938176;29;20490;-92
2020/12/03 00:13:59;;;;;;;51.33;25.90;;;4.20;99.90;;;-143.32;100.00;97610.22;4938083;29;20976;-92
2020/12/03 00:16:33;;;;;;;44.97;24.83;;;4.00;99.90;;;-143.32;100.00;97573.41;4938129;29;20450;-91
2020/12/03 00:19:15;;;;;;;50.03;24.80;;;4.10;99.90;;;-143.32;100.00;97614.31;4938642;29;20425;-91
2020/12/03 00:21:45;;;;;;;48.30;24.03;;;4.00;99.90;;;-143.32;100.00;97608.19;4937496;29;20441;-90
2020/12/03 00:24:16;;;;;;;49.00;25.77;;;4.00;99.90;;;-143.32;100.00;97610.22;4938108;29;20450;-88
2020/12/03 00:26:43;;;;;;;51.87;25.20;;;4.10;99.90;;;-143.32;100.00;97614.31;4937789;29;20462;-89
2020/12/03 00:29:10;;;;;;;46.20;24.87;;;4.00;99.90;;;-143.32;100.00;97642.97;4937919;29;20521;-88
2020/12/03 00:31:38;;;;;;;48.87;25.60;;;4.00;99.90;;;-143.32;100.00;97655.22;4937797;29;20458;-89
2020/12/03 00:34:06;;;;;;;52.87;26.23;;;4.00;99.90;;;-143.32;100.00;97600.00;4937591;29;20457;-90
2020/12/03 00:36:34;;;;;;;48.97;26.97;;;4.00;99.90;;;-143.32;100.00;97622.50;4937819;29;20790;-90
2020/12/03 00:39:01;;;;;;;47.57;25.20;;;4.00;99.90;;;-143.32;100.00;97575.44;4937477;29;20486;-90
2020/12/03 00:41:28;;;;;;;48.93;24.47;;;4.00;99.90;;;-143.32;100.00;97622.50;4937853;29;20949;-90
2020/12/03 00:43:55;;;;;;;48.07;24.93;;;4.00;99.90;;;-143.32;100.00;97618.41;4937763;29;20493;-90
2020/12/03 00:46:28;;;;;;;50.03;26.97;;;4.10;99.90;;;-143.32;100.00;97651.16;4937312;29;21012;-88
2020/12/03 00:48:56;;;;;;;48.17;25.27;;;4.10;99.90;;;-143.32;100.00;97649.09;4937934;29;21061;-88
2020/12/03 00:51:23;;;;;;;49.73;25.60;;;4.00;99.90;;;-143.32;100.00;97647.06;4937552;29;20478;-87
2020/12/03 00:53:50;;;;;;;47.43;25.70;;;3.90;99.90;;;-143.32;100.00;97667.50;4937598;29;20446;-87
2020/12/03 00:56:18;;;;;;;48.90;26.67;;;4.00;99.90;;;-143.32;100.00;97622.50;4937317;29;20545;-89
2020/12/03 00:58:45;;;;;;;46.20;24.93;;;4.00;99.90;;;-143.32;100.00;97673.66;4937425;29;20469;-88
2020/12/03 01:01:12;;;;;;;50.53;25.80;;;4.00;99.90;;;-143.32;100.00;97618.41;4937244;29;20504;-89
2020/12/03 01:03:39;;;;;;;50.90;25.40;;;4.00;99.90;;;-143.32;100.00;97634.78;4937246;29;20960;-89
2020/12/03 01:06:07;;;;;;;45.20;26.10;;;4.00;99.90;;;-143.32;100.00;97634.78;4937196;29;20753;-91
2020/12/03 01:08:33;;;;;;;48.73;25.53;;;4.00;99.90;;;-143.32;100.00;97636.81;4937030;29;20806;-87
2020/12/03 01:11:00;;;;;;;47.83;26.03;;;3.90;99.90;;;-143.32;100.00;97645.00;4937579;29;20514;-89
2020/12/03 01:13:27;;;;;;;55.30;27.60;;;4.00;99.90;;;-143.32;100.00;97667.50;4937359;29;20454;-89
2020/12/03 01:15:56;;;;;;;52.77;26.63;;;4.00;99.90;;;-143.32;100.00;97645.00;4936957;29;20846;-90
2020/12/03 01:18:23;;;;;;;55.40;27.87;;;4.00;99.90;;;-143.32;100.00;97630.69;4937863;29;20513;-89
2020/12/03 01:20:50;;;;;;;47.20;26.67;;;4.20;99.90;;;-143.32;100.00;97610.22;4936870;29;20446;-89
2020/12/03 01:23:17;;;;;;;48.70;26.60;;;4.10;99.90;;;-143.32;100.00;97661.38;4936811;29;20442;-89
2020/12/03 01:25:44;;;;;;;54.50;27.40;;;4.00;99.90;;;-143.32;100.00;97663.41;4937668;29;20442;-90
2020/12/03 01:28:11;;;;;;;54.23;27.03;;;4.00;99.90;;;-143.32;100.00;97634.78;4937803;29;20537;-89
2020/12/03 01:30:39;;;;;;;54.67;27.30;;;4.10;99.90;;;-143.32;100.00;97632.72;4936780;29;20501;-87
2020/12/03 01:33:06;;;;;;;47.17;24.97;;;4.00;99.90;;;-143.32;100.00;97608.19;4935813;29;20995;-90
2020/12/03 01:35:32;;;;;;;50.03;26.07;;;4.30;99.90;;;-143.32;100.00;97628.63;4936550;29;20490;-88
2020/12/03 01:38:01;;;;;;;50.80;27.03;;;4.10;99.90;;;-143.32;100.00;97608.19;4936922;29;20515;-88
2020/12/03 01:40:30;;;;;;;53.67;26.53;;;4.10;99.90;;;-143.32;100.00;97675.69;4936720;29;20505;-88
2020/12/03 01:42:57;;;;;;;53.10;26.70;;;4.10;99.90;;;-143.32;100.00;97618.41;4936489;29;20443;-91
2020/12/03 01:45:55;;;;;;;59.20;27.30;;;4.10;99.90;;;-143.32;100.00;97620.47;4936516;29;20517;-88
2020/12/03 01:48:38;;;;;;;51.30;26.70;;;4.10;99.90;;;-143.32;100.00;97632.72;4936954;29;20454;-89
2020/12/03 01:51:10;;;;;;;50.43;26.50;;;4.00;99.90;;;-143.32;100.00;97624.53;4936837;29;20454;-91
2020/12/03 01:53:37;;;;;;;58.10;27.90;;;4.20;99.90;;;-143.32;100.00;97649.09;4936384;29;20411;-88
2020/12/03 01:56:22;;;;;;;51.57;27.10;;;4.10;99.90;;;-143.32;100.00;97589.75;4936318;29;20458;-88
2020/12/03 01:58:49;;;;;;;50.10;25.30;;;4.10;99.90;;;-143.32;100.00;97600.00;4936479;29;20446;-89
2020/12/03 02:01:16;;;;;;;53.07;26.93;;;4.10;99.90;;;-143.32;100.00;97616.38;4936542;29;20441;-90
2020/12/03 02:03:47;;;;;;;53.87;28.47;;;4.10;99.90;;;-143.32;100.00;97642.97;4936647;29;20962;-89
2020/12/03 02:06:18;;;;;;;51.53;26.10;;;4.20;99.90;;;-143.32;100.00;97595.91;4937571;29;20965;-88
2020/12/03 02:08:46;;;;;;;57.37;26.67;;;4.10;99.90;;;-143.32;100.00;97616.38;4936420;29;20414;-91
2020/12/03 02:11:14;;;;;;;55.77;27.40;;;3.90;99.90;;;-143.32;100.00;97653.19;4936343;29;20494;-90
2020/12/03 02:13:52;;;;;;;53.47;28.20;;;4.00;99.90;;;-143.32;100.00;97647.06;4936527;29;20478;-89
2020/12/03 02:16:20;;;;;;;58.53;28.70;;;4.00;99.90;;;-143.32;100.00;97628.63;4936699;29;20438;-89
2020/12/03 02:18:50;;;;;;;63.80;28.00;;;4.00;99.90;;;-143.32;100.00;97581.59;4936758;29;20445;-90
2020/12/03 02:21:18;;;;;;;56.83;29.10;;;4.00;99.90;;;-143.32;100.00;97632.72;4936543;29;20450;-88
2020/12/03 02:23:47;;;;;;;53.23;28.40;;;4.00;99.90;;;-143.32;100.00;97667.50;4936627;29;20446;-90
2020/12/03 02:26:15;;;;;;;56.80;28.67;;;4.00;99.90;;;-143.32;100.00;97651.16;4936979;29;20552;-89
2020/12/03 02:28:42;;;;;;;57.00;28.20;;;4.00;99.90;;;-143.32;100.00;97651.16;4936924;29;20766;-91
2020/12/03 02:31:10;;;;;;;57.43;28.93;;;3.90;99.90;;;-143.32;100.00;97614.31;4936147;29;20785;-88
2020/12/03 02:33:37;;;;;;;52.33;27.40;;;4.00;99.90;;;-143.32;100.00;97595.91;4936408;29;20490;-89
2020/12/03 02:36:05;;;;;;;58.63;29.03;;;4.00;99.90;;;-143.32;100.00;97626.59;4936483;29;20497;-89
2020/12/03 02:38:35;;;;;;;57.27;28.40;;;4.00;99.90;;;-143.32;100.00;97618.41;4936338;29;20453;-89
2020/12/03 02:41:02;;;;;;;54.57;28.27;;;4.00;99.90;;;-143.32;100.00;97645.00;4936910;29;20438;-90
2020/12/03 02:43:29;;;;;;;57.93;28.73;;;4.20;99.90;;;-143.32;100.00;97614.31;4936230;29;20450;-91
2020/12/03 02:45:56;;;;;;;49.07;26.30;;;3.90;99.90;;;-143.32;100.00;97620.47;4938817;29;20488;-90
2020/12/03 02:48:25;;;;;;;55.40;27.80;;;4.00;99.90;;;-143.32;100.00;97636.81;4940036;29;20486;-90
2020/12/03 02:50:55;;;;;;;49.73;26.73;;;4.00;99.90;;;-143.32;100.00;97626.59;4939635;29;20482;-90
2020/12/03 02:53:22;;;;;;;55.10;27.47;;;4.00;99.90;;;-143.32;100.00;97632.72;4940518;29;20450;-90
2020/12/03 02:55:50;;;;;;;54.37;27.17;;;4.00;99.90;;;-143.32;100.00;97657.28;4939444;29;20508;-91
2020/12/03 02:58:19;;;;;;;52.93;27.43;;;4.00;99.90;;;-143.32;100.00;97612.28;4940346;29;20454;-89
2020/12/03 03:00:46;;;;;;;52.27;26.93;;;4.00;99.90;;;-143.32;100.00;97618.41;4939666;29;20956;-91
2020/12/03 03:03:13;;;;;;;49.07;26.60;;;4.00;99.90;;;-143.32;100.00;97636.81;4939494;29;20457;-90
2020/12/03 03:05:39;;;;;;;49.80;25.70;;;3.90;99.90;;;-143.32;100.00;97642.97;4939488;29;20464;-88
2020/12/03 03:08:06;;;;;;;51.63;26.00;;;4.00;99.90;;;-143.32;100.00;97671.59;4939366;29;20513;-92
2020/12/03 03:14:15;;;;;;;58.17;25.93;;;3.90;99.90;;;-143.32;100.00;97667.50;4939245;29;20409;-88
2020/12/03 03:16:42;;;;;;;55.27;27.53;;;3.90;99.90;;;-143.32;100.00;97647.06;4939116;29;20482;-91
2020/12/03 03:19:09;;;;;;;62.50;28.47;;;3.80;99.90;;;-143.32;100.00;97659.31;4938949;29;20509;-93
2020/12/03 03:21:36;;;;;;;63.10;28.17;;;3.80;99.90;;;-143.32;100.00;97630.69;4939140;29;20497;-90
2020/12/03 03:24:03;;;;;;;61.60;28.70;;;3.80;99.90;;;-143.32;100.00;97659.31;4939702;29;20514;-90
2020/12/03 03:26:30;;;;;;;58.17;27.43;;;3.80;99.90;;;-143.32;100.00;97683.88;4939019;29;20458;-88
2020/12/03 03:28:59;;;;;;;64.70;30.03;;;3.80;99.90;;;-143.32;100.00;97659.31;4939639;29;20522;-88
2020/12/03 03:31:30;;;;;;;61.67;28.67;;;3.80;99.90;;;-143.32;100.00;97679.78;4939241;29;20446;-89
2020/12/03 03:33:59;;;;;;;60.40;29.77;;;3.90;99.90;;;-143.32;100.00;97663.41;4939251;29;20447;-89
2020/12/03 03:36:29;;;;;;;57.80;28.17;;;3.90;99.90;;;-143.32;100.00;97665.47;4939047;29;20459;-89
2020/12/03 03:39:00;;;;;;;60.63;30.63;;;3.80;99.90;;;-143.32;100.00;97645.00;4939439;29;20622;-91
2020/12/03 03:41:30;;;;;;;53.70;26.53;;;3.90;99.90;;;-143.32;100.00;97685.94;4939019;29;20819;-90
2020/12/03 03:43:59;;;;;;;64.40;28.80;;;3.70;99.90;;;-143.32;100.00;97675.69;4938774;29;20537;-90
2020/12/03 03:46:30;;;;;;;62.07;28.20;;;3.90;99.90;;;-143.32;100.00;97663.41;4938798;29;20584;-89
2020/12/03 03:49:03;;;;;;;54.77;27.50;;;3.90;99.90;;;-143.32;100.00;97661.38;4939462;29;20434;-91
2020/12/03 03:51:30;;;;;;;60.33;27.73;;;3.90;99.90;;;-143.32;100.00;97659.31;4939379;29;20956;-89
2020/12/03 03:53:59;;;;;;;52.73;26.40;;;4.00;99.90;;;-143.32;100.00;97673.66;4938710;29;20450;-91
2020/12/03 03:56:35;;;;;;;56.80;27.57;;;3.80;99.90;;;-143.32;100.00;97704.34;4937947;29;20814;-89
2020/12/03 03:59:06;;;;;;;56.33;27.43;;;3.90;99.90;;;-143.32;100.00;97657.28;4941530;29;20532;-89
2020/12/03 04:01:37;;;;;;;62.67;27.80;;;3.80;99.90;;;-143.32;100.00;97653.19;4942981;29;20439;-88
2020/12/03 04:04:15;;;;;;;66.83;30.03;;;3.80;99.90;;;-143.32;100.00;97642.97;4938533;29;20445;-90
2020/12/03 04:06:44;;;;;;;63.07;29.17;;;3.80;99.90;;;-143.32;100.00;97645.00;4938754;29;20457;-89
2020/12/03 04:09:11;;;;;;;64.90;29.43;;;3.80;99.90;;;-143.32;100.00;97665.47;4938401;29;20497;-91
2020/12/03 04:11:43;;;;;;;61.50;28.00;;;3.80;99.90;;;-143.32;100.00;97647.06;4937932;29;20465;-92
2020/12/03 04:14:10;;;;;;;63.97;28.77;;;3.70;99.90;;;-143.32;100.00;97630.69;4938117;29;20439;-90
2020/12/03 04:16:38;;;;;;;59.77;29.43;;;3.80;99.90;;;-143.32;100.00;97602.03;4938548;29;20505;-89
2020/12/03 04:19:08;;;;;;;65.90;29.23;;;3.80;99.90;;;-143.32;100.00;97655.22;4937999;29;20454;-88
2020/12/03 04:21:37;;;;;;;61.33;28.67;;;3.90;99.90;;;-143.32;100.00;97690.03;4938072;29;20426;-90
2020/12/03 04:24:07;;;;;;;59.40;29.30;;;4.00;99.90;;;-143.32;100.00;97645.00;4937950;29;20447;-90
2020/12/03 04:26:37;;;;;;;58.47;27.90;;;3.90;99.90;;;-143.32;100.00;97616.38;4939010;29;20458;-89
2020/12/03 04:29:06;;;;;;;59.13;28.20;;;3.90;99.90;;;-143.32;100.00;97657.28;4938031;29;20446;-90
2020/12/03 04:31:33;;;;;;;62.23;28.10;;;3.90;99.90;;;-143.32;100.00;97618.41;4937852;29;20439;-91
2020/12/03 04:34:03;;;;;;;61.20;27.63;;;3.90;99.90;;;-143.32;100.00;97657.28;4938005;29;20465;-93
2020/12/03 04:36:33;;;;;;;67.00;28.93;;;3.90;99.90;;;-143.32;100.00;97645.00;4938613;29;20442;-90
2020/12/03 04:39:02;;;;;;;63.03;28.10;;;3.90;99.90;;;-143.32;100.00;97618.41;4938261;29;20441;-90
2020/12/03 04:41:34;;;;;;;57.47;27.30;;;3.90;99.90;;;-143.32;100.00;97645.00;4938696;29;20458;-91
2020/12/03 04:44:07;;;;;;;67.93;29.83;;;3.90;99.90;;;-143.32;100.00;97653.19;4938094;29;20464;-91
2020/12/03 04:46:49;;;;;;;56.53;27.50;;;4.00;99.90;;;-143.32;100.00;97683.88;4938099;29;20470;-90
2020/12/03 04:49:29;;;;;;;61.03;27.47;;;4.00;99.90;;;-143.32;100.00;97630.69;4937665;29;20445;-90
2020/12/03 04:52:35;;;;;;;57.83;28.57;;;4.00;99.90;;;-143.32;100.00;97645.00;4938160;29;20445;-90
2020/12/03 04:55:22;;;;;;;52.50;26.60;;;4.00;99.90;;;-143.32;100.00;97657.28;4937334;29;20460;-90
2020/12/03 04:58:02;;;;;;;56.63;26.47;;;4.00;99.90;;;-143.32;100.00;97700.25;4937631;29;20406;-89
2020/12/03 05:00:46;;;;;;;59.60;28.57;;;4.00;99.90;;;-143.32;100.00;97634.78;4938228;29;20451;-89
2020/12/03 05:04:02;;;;;;;55.73;26.40;;;4.00;99.90;;;-143.32;100.00;97622.50;4937511;29;20415;-92
2020/12/03 05:06:56;;;;;;;63.23;28.40;;;4.00;99.90;;;-143.32;100.00;97653.19;4936549;29;20458;-89
2020/12/03 05:09:34;;;;;;;50.90;25.83;;;4.00;99.90;;;-143.32;100.00;97647.06;4937191;29;20474;-89
2020/12/03 05:12:11;;;;;;;52.53;27.13;;;4.00;99.90;;;-143.32;100.00;97647.06;4937672;29;20541;-89
2020/12/03 05:14:48;;;;;;;49.97;23.37;;;4.00;99.90;;;-143.32;100.00;97667.50;4937020;29;20415;-89
2020/12/03 05:17:43;;;;;;;51.50;24.57;;;4.10;99.90;;;-143.32;100.00;97642.97;4937206;29;20450;-90
2020/12/03 05:20:36;;;;;;;53.33;25.90;;;4.00;99.90;;;-143.32;100.00;97624.53;4936878;29;20434;-91
2020/12/03 05:23:16;;;;;;;45.50;21.30;;;4.00;99.90;;;-143.32;100.00;97622.50;4937728;29;20977;-89
2020/12/03 05:25:53;;;;;;;46.50;22.30;;;4.00;99.90;;;-143.32;100.00;97616.38;4937573;29;20453;-91
2020/12/03 05:28:48;;;;;;;43.97;22.53;;;4.10;99.90;;;-143.32;100.00;97642.97;4936959;29;20446;-91
2020/12/03 05:31:50;;;;;;;45.23;23.67;;;4.10;99.90;;;-143.32;100.00;97624.53;4935511;29;20500;-89
2020/12/03 05:34:21;;;;;;;40.27;21.50;;;4.10;99.90;;;-143.32;100.00;97642.97;4937057;29;20486;-90
2020/12/03 05:37:07;;;;;;;41.77;21.10;;;3.90;99.90;;;-143.32;100.00;97573.41;4938036;29;20473;-90
2020/12/03 05:39:43;;;;;;;38.13;20.77;;;4.20;99.90;;;-143.32;100.00;97610.22;4937225;29;20442;-91
2020/12/03 05:42:22;;;;;;;44.07;22.63;;;4.20;99.90;;;-143.32;100.00;97626.59;4936763;29;20454;-90
2020/12/03 05:45:00;;;;;;;40.93;21.40;;;4.20;99.90;;;-143.32;100.00;97610.22;4936398;28;20468;-90
2020/12/03 05:47:36;;;;;;;39.70;20.80;;;4.20;99.90;;;-143.32;100.00;97600.00;4936821;29;20441;-91
2020/12/03 05:50:10;;;;;;;41.63;20.50;;;4.20;99.90;;;-143.32;100.00;97649.09;4937465;29;20509;-89
2020/12/03 05:52:58;;;;;;;34.10;18.67;;;4.20;99.90;;;-143.32;100.00;97624.53;4936835;29;20437;-91
2020/12/03 05:55:31;;;;;;;37.20;19.50;;;4.20;99.90;;;-143.32;100.00;97612.28;4937067;29;20427;-90
2020/12/03 05:58:18;;;;;;;37.83;18.50;;;4.20;99.90;;;-143.32;100.00;97618.41;4937661;29;20450;-91
2020/12/03 06:00:46;;;;;;;34.90;18.60;;;4.30;99.90;;;-143.32;100.00;97645.00;4937287;29;20423;-88
2020/12/03 06:03:29;;;;;;;37.13;19.17;;;4.30;99.90;;;-143.32;100.00;97591.81;4936596;29;20450;-88
2020/12/03 06:06:49;;;;;;;42.50;19.80;;;4.30;99.90;;;-143.32;100.00;97645.00;4937145;29;20422;-89
2020/12/03 06:09:59;;;;;;;39.03;20.40;;;4.30;99.90;;;-143.32;100.00;97604.09;4938040;29;20450;-90
2020/12/03 06:12:53;;;;;;;40.30;19.87;;;4.30;99.90;;;-143.32;100.00;97597.94;4937188;29;20461;-91
2020/12/03 06:15:41;;;;;;;39.20;19.43;;;4.30;99.90;;;-143.32;100.00;97622.50;4936899;29;20474;-91
2020/12/03 06:18:56;;;;;;;45.93;19.37;;;4.30;99.90;;;-143.32;100.00;97608.19;4937645;29;20924;-92
2020/12/03 06:22:00;;;;;;;33.27;18.77;;;4.40;99.90;;;-143.32;100.00;97616.38;4942036;29;20438;-89
2020/12/03 06:25:04;;;;;;;33.37;18.27;;;4.30;99.90;;;-143.32;100.00;97628.63;4941244;29;20422;-90
2020/12/03 06:27:51;;;;;;;36.03;18.50;;;4.30;99.90;;;-143.32;100.00;97608.19;4938955;29;20473;-89
2020/12/03 06:30:25;;;;;;;34.23;17.30;;;4.30;99.90;;;-143.32;100.00;97612.28;4941101;29;20540;-91
2020/12/03 08:57:55;;;;;;;23.53;12.80;;;4.30;99.90;;;-143.32;100.00;97577.50;5604671;23;20493;-89
2020/12/03 09:00:26;;;;;;;20.17;12.40;;;4.30;99.90;;;-143.32;100.00;97565.22;4995763;28;20431;-89
2020/12/03 09:02:53;;;;;;;23.73;13.17;;;4.40;99.90;;;-143.32;100.00;97616.38;4995229;28;20836;-87
2020/12/03 09:05:21;;;;;;;24.13;12.50;;;4.40;99.90;;;-143.32;100.00;97577.50;4995084;28;20850;-89
2020/12/03 09:07:49;;;;;;;21.70;12.30;;;4.40;99.90;;;-143.32;100.00;97591.81;4994899;28;20521;-89
2020/12/03 09:10:20;;;;;;;21.90;13.77;;;4.40;99.90;;;-143.32;100.00;97606.13;4994982;28;20489;-89
2020/12/03 09:12:52;;;;;;;22.50;13.80;;;4.30;99.90;;;-143.32;100.00;97626.59;4995500;28;20969;-88
2020/12/03 09:15:20;;;;;;;21.07;12.50;;;4.40;99.90;;;-143.32;100.00;97642.97;4995294;28;20407;-89
2020/12/03 09:18:00;;;;;;;22.23;13.17;;;4.40;99.90;;;-143.32;100.00;97649.09;4994914;28;20449;-88
2020/12/03 09:20:27;;;;;;;22.57;12.60;;;4.40;99.90;;;-143.32;100.00;97640.91;4994738;28;20474;-91
2020/12/03 09:22:54;;;;;;;20.70;11.80;;;4.50;99.90;;;-143.32;100.00;97593.84;4994823;28;20521;-89
2020/12/03 09:25:23;;;;;;;17.80;12.13;;;4.40;99.90;;;-143.32;100.00;97557.03;4994870;28;20447;-90
2020/12/03 09:27:58;;;;;;;24.80;15.23;;;4.50;99.90;;;-143.32;100.00;97614.31;4995291;28;20439;-90
2020/12/03 09:38:13;;;;;;;;;;;;;;;;;;;;;
2020/12/03 09:56:28;;;;;;;23.30;12.80;;;4.40;99.90;;;-143.32;100.00;97600.00;4975706;28;20440;-89
2020/12/03 10:03:29;;;;;;;20.50;11.37;;;4.70;99.90;;;-143.32;100.00;97581.59;4779244;30;20456;-91
2020/12/03 10:20:03;;;;;;;22.20;11.87;;;4.90;99.90;;;-143.32;100.00;97559.06;4837617;29;20465;-91
2020/12/03 10:23:05;;;;;;;20.07;11.93;;;4.90;99.90;;;-143.32;100.00;97604.09;4918388;28;20835;-89
2020/12/03 10:29:50;;;;;;;18.70;11.40;;;4.80;99.90;;;-143.32;100.00;97583.63;4860987;29;20496;-90
2020/12/03 10:33:19;;;;;;;20.13;11.53;;;4.90;99.90;;;-143.32;100.00;97608.19;4972399;28;20943;-90
2020/12/03 10:35:48;;;;;;;18.87;11.97;;;4.80;99.90;;;-143.32;100.00;97585.69;4976578;28;20494;-89
2020/12/03 10:38:22;;;;;;;19.43;11.93;;;4.80;99.90;;;-143.32;100.00;97528.38;4973401;28;20552;-91
2020/12/03 10:40:54;;;;;;;18.87;11.23;;;4.90;99.90;;;-143.32;100.00;97612.28;4989464;28;20457;-90
2020/12/03 10:43:29;;;;;;;16.43;11.57;;;4.80;99.90;;;-143.32;100.00;97579.53;4995187;28;20522;-89
2020/12/03 10:46:05;;;;;;;20.77;11.83;;;4.90;99.90;;;-143.32;100.00;97604.09;4995046;28;20423;-88
2020/12/03 10:48:36;;;;;;;17.20;11.20;;;4.80;99.90;;;-143.32;100.00;97552.94;4994283;28;20481;-88
2020/12/03 10:51:07;;;;;;;18.87;10.47;;;4.90;99.90;;;-143.32;100.00;97548.84;4994249;28;20997;-88
2020/12/03 10:53:36;;;;;;;16.50;11.50;;;4.90;99.90;;;-143.32;100.00;97559.06;4994483;28;20501;-89
2020/12/03 10:56:05;;;;;;;16.53;10.67;;;5.00;99.90;;;-143.32;100.00;97559.06;4994412;28;20455;-89
2020/12/03 10:59:41;;;;;;;16.67;10.93;;;5.00;99.90;;;-143.32;100.00;97569.31;4994653;28;20525;-87
2020/12/03 11:02:39;;;;;;;18.90;11.87;;;5.00;99.90;;;-143.32;100.00;97514.06;4990449;28;20498;-88
2020/12/03 11:05:08;;;;;;;20.27;11.87;;;5.00;99.90;;;-143.32;100.00;97555.00;4989024;28;20554;-89
2020/12/03 11:07:36;;;;;;;18.87;11.67;;;5.00;99.90;;;-143.32;100.00;97561.13;4997781;28;20442;-88
2020/12/03 11:10:05;;;;;;;17.53;11.70;;;5.00;99.90;;;-143.32;100.00;97557.03;4997869;28;20490;-89
2020/12/03 11:12:33;;;;;;;20.17;11.00;;;5.00;99.90;;;-143.32;100.00;97555.00;4998228;28;20509;-90
2020/12/03 11:15:05;;;;;;;16.40;11.87;;;5.00;99.90;;;-143.32;100.00;97597.94;4997887;28;20443;-89
2020/12/03 11:18:01;;;;;;;19.73;11.40;;;5.00;99.90;;;-143.32;100.00;97573.41;4997555;28;20953;-94
2020/12/03 11:20:43;;;;;;;16.10;9.60;;;5.00;99.90;;;-143.32;100.00;97585.69;5000033;28;20506;-91
2020/12/03 11:26:55;;;;;;;17.77;11.47;;;5.00;99.90;;;-143.32;100.00;97546.81;5005915;28;20486;-90
2020/12/03 11:29:24;;;;;;;18.70;11.83;;;5.00;99.90;;;-143.32;100.00;97550.91;5000968;28;20510;-88
2020/12/03 11:31:57;;;;;;;19.33;12.87;;;5.00;99.90;;;-143.32;100.00;97563.16;4997431;28;20549;-88
2020/12/03 11:34:35;;;;;;;18.80;12.27;;;4.90;99.90;;;-143.32;100.00;97561.13;4998149;28;20416;-88
2020/12/03 11:37:02;;;;;;;20.10;12.30;;;4.90;99.90;;;-143.32;100.00;97587.72;4997899;28;20443;-87
2020/12/03 11:39:30;;;;;;;21.60;11.63;;;4.90;99.90;;;-143.32;100.00;97634.78;4996810;28;20451;-89
2020/12/03 11:42:19;;;;;;;19.60;12.37;;;4.80;99.90;;;-143.32;100.00;97559.06;4996318;28;20481;-88
2020/12/03 11:45:14;;;;;;;25.93;14.60;;;4.90;99.90;;;-143.32;100.00;97573.41;4996457;28;20443;-88
2020/12/03 11:48:04;;;;;;;27.07;15.90;;;4.80;99.90;;;-143.32;100.00;97575.44;4996511;28;20522;-88
2020/12/03 11:50:39;;;;;;;22.27;12.93;;;4.80;99.90;;;-143.32;100.00;97595.91;4996399;28;20486;-91
2020/12/03 11:53:09;;;;;;;21.90;12.30;;;4.80;99.90;;;-143.32;100.00;97595.91;4996265;28;20513;-89
2020/12/03 12:03:59;;;;;;;27.43;14.43;;;4.60;99.90;;;-143.32;100.00;97559.06;4880553;29;20420;-90
2020/12/03 12:11:19;;;;;;;18.93;11.33;;;4.90;99.90;;;-143.32;100.00;97587.72;4911273;29;20614;-91
2020/12/03 12:14:08;;;;;;;21.90;12.17;;;5.00;99.90;;;-143.32;100.00;97565.22;4964809;28;20534;-93
2020/12/03 12:27:50;;;;;;;17.97;11.70;;;5.00;99.90;;;-143.32;100.00;97569.31;4861289;29;20499;-89
2020/12/03 12:37:50;;;;;;;18.20;10.53;;;5.00;99.90;;;-143.32;100.00;97548.84;4974572;28;20478;-89
2020/12/03 12:40:20;;;;;;;12.70;9.07;;;5.00;99.90;;;-143.32;100.00;97550.91;4995275;28;20875;-88
2020/12/03 12:43:07;;;;;;;16.30;10.10;;;5.00;99.90;;;-143.32;100.00;97563.16;4995628;28;20835;-88
2020/12/03 12:45:39;;;;;;;16.63;9.87;;;5.00;99.90;;;-143.32;100.00;97569.31;4994578;28;20502;-88
2020/12/03 12:48:07;;;;;;;16.40;9.60;;;5.00;99.90;;;-143.32;100.00;97514.06;4995359;28;20531;-89
2020/12/03 12:55:13;;;;;;;11.67;8.33;;;5.10;99.90;;;-143.32;100.00;97528.38;4995281;28;20450;-89
2020/12/03 12:57:51;;;;;;;14.40;9.40;;;4.90;99.90;;;-143.32;100.00;97573.41;4994989;28;20481;-89
2020/12/03 13:00:17;;;;;;;13.87;8.73;;;5.10;99.90;;;-143.32;100.00;97565.22;4995526;28;20481;-88
2020/12/03 13:02:45;;;;;;;14.33;8.67;;;5.00;99.90;;;-143.32;100.00;97579.53;4995098;28;20953;-88
2020/12/03 13:05:13;;;;;;;16.33;9.30;;;5.00;99.90;;;-143.32;100.00;97540.66;4995682;28;20929;-89
2020/12/03 13:07:39;;;;;;;13.73;9.23;;;5.10;99.90;;;-143.32;100.00;97534.53;4995012;28;20483;-88
2020/12/03 13:10:06;;;;;;;13.60;9.40;;;5.20;99.90;;;-143.32;100.00;97550.91;4994670;28;20502;-85
2020/12/03 13:12:32;;;;;;;14.10;9.03;;;5.30;99.90;;;-143.32;100.00;97561.13;4995320;28;20961;-87
2020/12/03 13:15:09;;;;;;;17.73;9.10;;;5.10;99.90;;;-143.32;100.00;97559.06;4995183;28;20859;-88
2020/12/03 13:17:37;;;;;;;14.63;9.10;;;5.20;99.90;;;-143.32;100.00;97548.84;4998062;28;20439;-90
2020/12/03 13:28:23;;;;;;;17.83;10.50;;;5.20;99.90;;;-143.32;99.85;97557.03;4835920;29;20436;-91
2020/12/03 13:38:10;;;;;;;18.13;10.40;;;5.20;99.90;;;-143.32;99.94;97501.78;5006587;28;20414;-90
2020/12/03 13:40:36;;;;;;;22.23;11.43;;;5.20;99.90;;;-143.32;99.93;97489.53;5005464;28;20478;-90
2020/12/03 13:50:00;;;;;;;14.80;9.55;;;5.30;99.90;;;-143.32;99.56;97557.03;4896471;29;20431;-87
2020/12/03 13:52:37;;;;;;;14.13;9.37;;;5.30;99.90;;;-143.32;99.96;97550.91;4971158;28;20857;-87
2020/12/03 13:56:07;;;;;;;15.63;7.23;;;5.30;99.90;;;-143.32;99.57;97552.94;4994388;28;20440;-88
2020/12/03 13:58:36;;;;;;;11.50;8.00;;;5.30;99.90;;;-143.32;99.02;97509.97;4994021;28;20487;-87
2020/12/03 14:04:43;;;;;;;12.43;7.63;;;5.30;99.90;;;-143.32;99.17;97569.31;4993999;28;20446;-88
2020/12/03 14:07:10;;;;;;;13.90;8.03;;;5.30;99.90;;;-143.32;99.37;97546.81;4994162;28;20802;-86
2020/12/03 14:09:40;;;;;;;13.43;7.93;;;5.30;99.90;;;-143.32;99.30;97534.53;4993977;28;20470;-86
2020/12/03 14:12:07;;;;;;;14.73;8.50;;;5.20;99.90;;;-143.32;98.54;97577.50;4994079;28;20487;-87
2020/12/03 14:14:37;;;;;;;11.30;7.43;;;5.30;99.90;;;-143.32;99.36;97528.38;4994779;28;20443;-90
2020/12/03 14:17:03;;;;;;;14.30;7.60;;;5.30;99.90;;;-143.32;98.75;97497.69;4994594;28;20475;-90
2020/12/03 14:19:30;;;;;;;15.83;8.80;;;5.30;99.90;;;-143.32;98.34;97518.16;4995163;28;20447;-89
2020/12/03 14:21:56;;;;;;;13.80;7.87;;;5.30;99.90;;;-143.32;98.35;97528.38;4996412;28;20446;-88
2020/12/03 14:24:26;;;;;;;11.27;7.63;;;5.40;99.90;;;-143.32;98.36;97512.03;4995976;28;20490;-86
2020/12/03 14:26:53;;;;;;;13.43;8.20;;;5.30;99.90;;;-143.32;98.39;97546.81;4993794;28;20529;-86
2020/12/03 14:51:15;;;;;;;12.23;7.30;;;5.30;99.90;;;-143.32;98.55;97485.44;4886100;29;20538;-88
2020/12/03 14:57:37;;;;;;;12.70;7.20;;;5.20;99.90;;;-143.32;98.81;97516.13;4928822;29;20829;-92
2020/12/03 15:00:31;;;;;;;12.00;7.63;;;5.30;99.90;;;-143.32;98.54;97538.63;4929226;29;20439;-91
2020/12/03 15:02:58;;;;;;;18.13;11.63;;;5.30;99.90;;;-143.32;99.04;97597.94;4916592;29;21022;-89
2020/12/03 15:05:25;;;;;;;11.90;7.27;;;5.20;99.90;;;-143.32;98.90;97507.94;4969812;28;20484;-92
2020/12/03 15:07:53;;;;;;;10.70;7.27;;;5.30;99.90;;;-143.32;98.77;97552.94;4988386;28;20468;-88
2020/12/03 15:10:28;;;;;;;11.53;7.43;;;5.30;99.90;;;-143.32;99.08;97555.00;4978828;28;20448;-87